FFL693 K1G0-KOSU
Flight info
| Callsign | FFL693 |
|---|---|
| Flight time | 0h 25m |
| Altitude | 9000 |
| Route | DCT |
| Aircraft | PC12/L-SDFGRWY/S |
Departure
| Time | 2026-05-07 14:45 |
|---|---|
| Airport | Wood County Airport (K1G0) |
Arrival
| Time | 2026-05-07 15:10 |
|---|---|
| Airport | The Ohio State University Airport - Don Scott Field (KOSU) |
| Time | Latitude | Longitude | Altitude | Speed | Heading |
|---|---|---|---|---|---|
| 2026-05-07 14:42 | 41.38648 | -83.63602 | 680 ft | 0 kts | 359° |
| 2026-05-07 14:43 | 41.38654 | -83.63603 | 680 ft | 5 kts | 353° |
| 2026-05-07 14:43 | 41.38674 | -83.63612 | 680 ft | 1 kts | 338° |
| 2026-05-07 14:43 | 41.38745 | -83.63621 | 680 ft | 17 kts | 46° |
| 2026-05-07 14:44 | 41.38860 | -83.63511 | 681 ft | 25 kts | 357° |
| 2026-05-07 14:44 | 41.39045 | -83.63516 | 680 ft | 18 kts | 0° |
| 2026-05-07 14:44 | 41.39178 | -83.63501 | 681 ft | 9 kts | 68° |
| 2026-05-07 14:44 | 41.39174 | -83.63280 | 680 ft | 55 kts | 90° |
| 2026-05-07 14:45 | 41.39179 | -83.62479 | 709 ft | 110 kts | 86° |
| 2026-05-07 14:45 | 41.39181 | -83.61250 | 853 ft | 155 kts | 90° |
| 2026-05-07 14:45 | 41.39179 | -83.59762 | 1527 ft | 160 kts | 90° |
| 2026-05-07 14:45 | 41.39172 | -83.58291 | 2359 ft | 160 kts | 92° |
| 2026-05-07 14:46 | 41.38714 | -83.56964 | 3134 ft | 163 kts | 141° |
| 2026-05-07 14:46 | 41.37685 | -83.56528 | 3867 ft | 156 kts | 187° |
| 2026-05-07 14:46 | 41.36596 | -83.56528 | 4584 ft | 160 kts | 174° |
| 2026-05-07 14:46 | 41.35508 | -83.56149 | 5298 ft | 163 kts | 167° |
| 2026-05-07 14:47 | 41.34411 | -83.55722 | 6016 ft | 165 kts | 168° |
| 2026-05-07 14:47 | 41.33298 | -83.55289 | 6801 ft | 168 kts | 168° |
| 2026-05-07 14:47 | 41.32171 | -83.54851 | 7618 ft | 169 kts | 169° |
| 2026-05-07 14:47 | 41.31022 | -83.54392 | 8329 ft | 174 kts | 170° |
| 2026-05-07 14:48 | 41.29821 | -83.53921 | 8869 ft | 191 kts | 170° |
| 2026-05-07 14:48 | 41.28466 | -83.53383 | 9044 ft | 217 kts | 169° |
| 2026-05-07 14:48 | 41.26931 | -83.52811 | 8984 ft | 239 kts | 170° |
| 2026-05-07 14:48 | 41.25308 | -83.52209 | 8990 ft | 244 kts | 169° |
| 2026-05-07 14:49 | 41.23665 | -83.51572 | 8994 ft | 248 kts | 168° |
| 2026-05-07 14:49 | 41.22013 | -83.50893 | 8993 ft | 249 kts | 168° |
| 2026-05-07 14:49 | 41.20354 | -83.50230 | 8976 ft | 249 kts | 169° |
| 2026-05-07 14:49 | 41.18683 | -83.49597 | 8959 ft | 249 kts | 169° |
| 2026-05-07 14:50 | 41.17016 | -83.49008 | 8972 ft | 248 kts | 171° |
| 2026-05-07 14:50 | 41.15344 | -83.48452 | 8994 ft | 248 kts | 171° |
| 2026-05-07 14:50 | 41.13680 | -83.47833 | 8987 ft | 249 kts | 168° |
| 2026-05-07 14:50 | 41.12024 | -83.47169 | 8998 ft | 248 kts | 168° |
| 2026-05-07 14:51 | 41.10369 | -83.46491 | 9002 ft | 250 kts | 167° |
| 2026-05-07 14:51 | 41.08716 | -83.45785 | 9004 ft | 250 kts | 167° |
| 2026-05-07 14:51 | 41.07065 | -83.45056 | 8986 ft | 250 kts | 166° |
| 2026-05-07 14:51 | 41.05414 | -83.44342 | 8990 ft | 249 kts | 168° |
| 2026-05-07 14:52 | 41.03759 | -83.43674 | 8988 ft | 249 kts | 168° |
| 2026-05-07 14:52 | 41.02101 | -83.43003 | 9000 ft | 248 kts | 168° |
| 2026-05-07 14:52 | 41.00434 | -83.42461 | 9012 ft | 246 kts | 174° |
| 2026-05-07 14:52 | 40.98757 | -83.41981 | 9002 ft | 247 kts | 171° |
| 2026-05-07 14:53 | 40.97095 | -83.41390 | 9022 ft | 247 kts | 170° |
| 2026-05-07 14:53 | 40.95427 | -83.40791 | 8982 ft | 249 kts | 169° |
| 2026-05-07 14:53 | 40.93762 | -83.40181 | 8997 ft | 247 kts | 170° |
| 2026-05-07 14:53 | 40.92103 | -83.39588 | 8991 ft | 248 kts | 170° |
| 2026-05-07 14:54 | 40.90436 | -83.39001 | 8984 ft | 247 kts | 171° |
| 2026-05-07 14:54 | 40.88777 | -83.38410 | 9000 ft | 248 kts | 168° |
| 2026-05-07 14:54 | 40.87132 | -83.37700 | 8996 ft | 249 kts | 167° |
| 2026-05-07 14:54 | 40.85483 | -83.37014 | 8990 ft | 248 kts | 168° |
| 2026-05-07 14:55 | 40.83834 | -83.36350 | 9001 ft | 248 kts | 168° |
| 2026-05-07 14:55 | 40.82188 | -83.35671 | 9013 ft | 248 kts | 168° |
| 2026-05-07 14:55 | 40.80539 | -83.34984 | 9029 ft | 248 kts | 167° |
| 2026-05-07 14:55 | 40.78902 | -83.34251 | 9024 ft | 248 kts | 167° |
| 2026-05-07 14:56 | 40.77253 | -83.33587 | 9018 ft | 248 kts | 169° |
| 2026-05-07 14:56 | 40.75597 | -83.32972 | 9016 ft | 248 kts | 169° |
| 2026-05-07 14:56 | 40.73937 | -83.32346 | 9018 ft | 248 kts | 169° |
| 2026-05-07 14:56 | 40.72279 | -83.31707 | 9014 ft | 249 kts | 168° |
| 2026-05-07 14:57 | 40.70617 | -83.31069 | 9016 ft | 249 kts | 169° |
| 2026-05-07 14:57 | 40.68953 | -83.30433 | 9015 ft | 249 kts | 169° |
| 2026-05-07 14:57 | 40.67294 | -83.29785 | 9009 ft | 249 kts | 167° |
| 2026-05-07 14:57 | 40.65689 | -83.28903 | 9011 ft | 251 kts | 159° |
| 2026-05-07 14:58 | 40.64650 | -83.28229 | 9008 ft | 251 kts | 158° |
| 2026-05-07 14:58 | 40.63072 | -83.27251 | 9011 ft | 251 kts | 161° |
| 2026-05-07 14:58 | 40.61474 | -83.26330 | 9010 ft | 251 kts | 161° |
| 2026-05-07 14:58 | 40.59875 | -83.25413 | 9009 ft | 251 kts | 161° |
| 2026-05-07 14:59 | 40.58278 | -83.24480 | 9009 ft | 251 kts | 161° |
| 2026-05-07 14:59 | 40.56683 | -83.23545 | 9006 ft | 251 kts | 161° |
| 2026-05-07 14:59 | 40.55087 | -83.22617 | 9007 ft | 251 kts | 161° |
| 2026-05-07 14:59 | 40.53490 | -83.21687 | 9004 ft | 251 kts | 161° |
| 2026-05-07 15:00 | 40.51896 | -83.20759 | 9002 ft | 251 kts | 161° |
| 2026-05-07 15:00 | 40.50300 | -83.19830 | 9004 ft | 251 kts | 161° |
| 2026-05-07 15:00 | 40.48706 | -83.18905 | 9008 ft | 251 kts | 161° |
| 2026-05-07 15:00 | 40.47111 | -83.17978 | 8998 ft | 251 kts | 161° |
| 2026-05-07 15:01 | 40.45538 | -83.17063 | 9000 ft | 251 kts | 161° |
| 2026-05-07 15:01 | 40.43921 | -83.16125 | 9001 ft | 251 kts | 161° |
| 2026-05-07 15:01 | 40.42324 | -83.15199 | 8968 ft | 252 kts | 161° |
| 2026-05-07 15:01 | 40.40701 | -83.14259 | 8717 ft | 257 kts | 161° |
| 2026-05-07 15:02 | 40.39079 | -83.13319 | 8398 ft | 259 kts | 160° |
| 2026-05-07 15:02 | 40.37427 | -83.12361 | 8051 ft | 260 kts | 160° |
| 2026-05-07 15:02 | 40.35779 | -83.11406 | 7709 ft | 259 kts | 160° |
| 2026-05-07 15:02 | 40.34137 | -83.10456 | 7366 ft | 257 kts | 160° |
| 2026-05-07 15:03 | 40.32500 | -83.09510 | 7025 ft | 256 kts | 159° |
| 2026-05-07 15:03 | 40.30902 | -83.08586 | 6692 ft | 254 kts | 159° |
| 2026-05-07 15:03 | 40.29287 | -83.07652 | 6357 ft | 253 kts | 159° |
| 2026-05-07 15:03 | 40.27673 | -83.06720 | 6013 ft | 252 kts | 159° |
| 2026-05-07 15:04 | 40.26075 | -83.05799 | 5675 ft | 250 kts | 159° |
| 2026-05-07 15:04 | 40.24487 | -83.04882 | 5344 ft | 249 kts | 158° |
| 2026-05-07 15:04 | 40.23040 | -83.04041 | 5095 ft | 203 kts | 159° |
| 2026-05-07 15:04 | 40.21822 | -83.03344 | 4999 ft | 187 kts | 159° |
| 2026-05-07 15:05 | 40.20608 | -83.02646 | 4741 ft | 192 kts | 159° |
| 2026-05-07 15:05 | 40.19425 | -83.01963 | 4514 ft | 180 kts | 159° |
| 2026-05-07 15:05 | 40.18290 | -83.01312 | 4312 ft | 177 kts | 159° |
| 2026-05-07 15:05 | 40.17165 | -83.00664 | 4080 ft | 176 kts | 159° |
| 2026-05-07 15:06 | 40.16045 | -83.00019 | 3855 ft | 175 kts | 159° |
| 2026-05-07 15:06 | 40.14928 | -82.99381 | 3628 ft | 175 kts | 159° |
| 2026-05-07 15:06 | 40.13818 | -82.98742 | 3398 ft | 175 kts | 159° |
| 2026-05-07 15:06 | 40.12714 | -82.98105 | 3170 ft | 172 kts | 159° |
| 2026-05-07 15:07 | 40.11609 | -82.97506 | 2929 ft | 171 kts | 168° |
| 2026-05-07 15:07 | 40.10467 | -82.97422 | 2744 ft | 164 kts | 192° |
| 2026-05-07 15:07 | 40.09395 | -82.97882 | 2525 ft | 155 kts | 217° |
| 2026-05-07 15:07 | 40.08679 | -82.98781 | 2343 ft | 133 kts | 240° |
| 2026-05-07 15:08 | 40.08229 | -82.99801 | 2095 ft | 128 kts | 250° |
| 2026-05-07 15:08 | 40.07980 | -83.00884 | 1908 ft | 121 kts | 263° |
| 2026-05-07 15:08 | 40.07902 | -83.01883 | 1769 ft | 98 kts | 271° |
| 2026-05-07 15:08 | 40.07904 | -83.02711 | 1607 ft | 88 kts | 270° |
| 2026-05-07 15:09 | 40.07898 | -83.03498 | 1412 ft | 86 kts | 265° |
| 2026-05-07 15:09 | 40.07878 | -83.04246 | 1291 ft | 79 kts | 262° |
| 2026-05-07 15:09 | 40.07843 | -83.04947 | 1175 ft | 76 kts | 265° |
| 2026-05-07 15:09 | 40.07818 | -83.05636 | 1059 ft | 76 kts | 265° |
| 2026-05-07 15:10 | 40.07788 | -83.06329 | 932 ft | 76 kts | 263° |
| 2026-05-07 15:10 | 40.07760 | -83.06972 | 899 ft | 61 kts | 266° |
| 2026-05-07 15:10 | 40.07749 | -83.07288 | 906 ft | 17 kts | 265° |
| 2026-05-07 15:10 | 40.07652 | -83.07338 | 905 ft | 18 kts | 182° |
| 2026-05-07 15:11 | 40.07609 | -83.07406 | 906 ft | 11 kts | 270° |
| 2026-05-07 15:11 | 40.07609 | -83.07446 | 907 ft | 8 kts | 270° |
| 2026-05-07 15:11 | 40.07574 | -83.07495 | 907 ft | 10 kts | 176° |
| 2026-05-07 15:11 | 40.07550 | -83.07495 | 906 ft | 0 kts | 213° |
| 2026-05-07 15:12 | 40.07547 | -83.07524 | 907 ft | 0 kts | 269° |
| 2026-05-07 15:17 | 40.07562 | -83.07541 | 907 ft | 9 kts | 9° |
| 2026-05-07 15:17 | 40.07608 | -83.07502 | 907 ft | 11 kts | 83° |
| 2026-05-07 15:17 | 40.07612 | -83.07333 | 904 ft | 26 kts | 88° |
| 2026-05-07 15:18 | 40.07620 | -83.07110 | 903 ft | 13 kts | 87° |
| 2026-05-07 15:18 | 40.07624 | -83.06970 | 902 ft | 22 kts | 88° |
| 2026-05-07 15:18 | 40.07634 | -83.06709 | 897 ft | 28 kts | 86° |
| 2026-05-07 15:18 | 40.07644 | -83.06508 | 898 ft | 26 kts | 79° |
| 2026-05-07 15:19 | 40.07743 | -83.06386 | 894 ft | 21 kts | 354° |
| 2026-05-07 15:19 | 40.07783 | -83.06472 | 892 ft | 18 kts | 269° |
| 2026-05-07 15:19 | 40.07768 | -83.06867 | 898 ft | 72 kts | 267° |
| 2026-05-07 15:19 | 40.07733 | -83.07668 | 1063 ft | 99 kts | 266° |
| 2026-05-07 15:20 | 40.07567 | -83.08679 | 1361 ft | 129 kts | 248° |
| 2026-05-07 15:20 | 40.07288 | -83.09835 | 2024 ft | 138 kts | 244° |
| 2026-05-07 15:20 | 40.06462 | -83.10534 | 2744 ft | 156 kts | 191° |
| 2026-05-07 15:20 | 40.05421 | -83.10088 | 3494 ft | 167 kts | 140° |
| 2026-05-07 15:21 | 40.04658 | -83.08934 | 4144 ft | 170 kts | 137° |
| 2026-05-07 15:21 | 40.03703 | -83.08039 | 4888 ft | 169 kts | 152° |
| 2026-05-07 15:21 | 40.02686 | -83.07246 | 5668 ft | 171 kts | 152° |
| 2026-05-07 15:21 | 40.01668 | -83.06430 | 6426 ft | 173 kts | 152° |
| 2026-05-07 15:22 | 40.00641 | -83.05605 | 7142 ft | 174 kts | 152° |
| 2026-05-07 15:22 | 39.99602 | -83.04769 | 7840 ft | 176 kts | 153° |
| 2026-05-07 15:22 | 39.98549 | -83.03925 | 8549 ft | 179 kts | 154° |
| 2026-05-07 15:22 | 39.97485 | -83.03071 | 9281 ft | 181 kts | 155° |
| 2026-05-07 15:23 | 39.96409 | -83.02208 | 9994 ft | 183 kts | 156° |
| 2026-05-07 15:23 | 39.95317 | -83.01332 | 10608 ft | 188 kts | 157° |
| 2026-05-07 15:23 | 39.94153 | -83.00410 | 10952 ft | 206 kts | 156° |
| 2026-05-07 15:23 | 39.92867 | -82.99392 | 11004 ft | 232 kts | 155° |
| 2026-05-07 15:24 | 39.91445 | -82.98249 | 11003 ft | 247 kts | 155° |
| 2026-05-07 15:24 | 39.89965 | -82.97052 | 11010 ft | 253 kts | 154° |
| 2026-05-07 15:24 | 39.88455 | -82.95840 | 11008 ft | 256 kts | 155° |
| 2026-05-07 15:24 | 39.86933 | -82.94623 | 11012 ft | 257 kts | 155° |
| 2026-05-07 15:25 | 39.85396 | -82.93396 | 11011 ft | 261 kts | 155° |
| 2026-05-07 15:25 | 39.83848 | -82.92158 | 11009 ft | 262 kts | 154° |
| 2026-05-07 15:25 | 39.82294 | -82.90916 | 11009 ft | 262 kts | 155° |
| 2026-05-07 15:25 | 39.80739 | -82.89675 | 11009 ft | 262 kts | 155° |
| 2026-05-07 15:26 | 39.79185 | -82.88435 | 11009 ft | 262 kts | 155° |
| 2026-05-07 15:26 | 39.77630 | -82.87195 | 11007 ft | 263 kts | 155° |
| 2026-05-07 15:26 | 39.76074 | -82.85955 | 11005 ft | 262 kts | 155° |
| 2026-05-07 15:26 | 39.74522 | -82.84719 | 11008 ft | 262 kts | 155° |
| 2026-05-07 15:27 | 39.72966 | -82.83481 | 11007 ft | 262 kts | 155° |
| 2026-05-07 15:27 | 39.71411 | -82.82244 | 11000 ft | 262 kts | 155° |
| 2026-05-07 15:27 | 39.69853 | -82.81005 | 10998 ft | 263 kts | 155° |
| 2026-05-07 15:27 | 39.68295 | -82.79766 | 10994 ft | 262 kts | 155° |
| 2026-05-07 15:28 | 39.66738 | -82.78529 | 10993 ft | 262 kts | 154° |
| 2026-05-07 15:28 | 39.65185 | -82.77296 | 10993 ft | 262 kts | 155° |
| 2026-05-07 15:28 | 39.63632 | -82.76063 | 10990 ft | 262 kts | 155° |
| 2026-05-07 15:28 | 39.62078 | -82.74832 | 10988 ft | 262 kts | 155° |
| 2026-05-07 15:29 | 39.60525 | -82.73601 | 10990 ft | 262 kts | 154° |
| 2026-05-07 15:29 | 39.58971 | -82.72370 | 10988 ft | 262 kts | 154° |
| 2026-05-07 15:29 | 39.57416 | -82.71138 | 10986 ft | 262 kts | 154° |
| 2026-05-07 15:29 | 39.55864 | -82.69909 | 10987 ft | 262 kts | 154° |
| 2026-05-07 15:30 | 39.54310 | -82.68681 | 10986 ft | 262 kts | 154° |
| 2026-05-07 15:30 | 39.52756 | -82.67452 | 10987 ft | 261 kts | 154° |
| 2026-05-07 15:30 | 39.51207 | -82.66228 | 10985 ft | 261 kts | 154° |
| 2026-05-07 15:30 | 39.49659 | -82.65006 | 10990 ft | 261 kts | 154° |
| 2026-05-07 15:31 | 39.48109 | -82.63783 | 10986 ft | 261 kts | 154° |
| 2026-05-07 15:31 | 39.46555 | -82.62579 | 10986 ft | 258 kts | 158° |
| 2026-05-07 15:31 | 39.44900 | -82.61792 | 10986 ft | 250 kts | 174° |
| 2026-05-07 15:31 | 39.43198 | -82.61567 | 10992 ft | 243 kts | 188° |
| 2026-05-07 15:32 | 39.41520 | -82.61733 | 10996 ft | 242 kts | 191° |
| 2026-05-07 15:32 | 39.39841 | -82.61902 | 10996 ft | 242 kts | 191° |
| 2026-05-07 15:32 | 39.38161 | -82.62067 | 10996 ft | 242 kts | 191° |
| 2026-05-07 15:32 | 39.36507 | -82.62236 | 10993 ft | 242 kts | 191° |
| 2026-05-07 15:33 | 39.34827 | -82.62409 | 11000 ft | 242 kts | 191° |
| 2026-05-07 15:33 | 39.33145 | -82.62579 | 10998 ft | 242 kts | 191° |
| 2026-05-07 15:33 | 39.31441 | -82.62751 | 10998 ft | 242 kts | 191° |
| 2026-05-07 15:33 | 39.29782 | -82.62922 | 10998 ft | 243 kts | 191° |
| 2026-05-07 15:34 | 39.28103 | -82.63091 | 10997 ft | 242 kts | 191° |
| 2026-05-07 15:34 | 39.26423 | -82.63261 | 11001 ft | 243 kts | 191° |
| 2026-05-07 15:34 | 39.24718 | -82.63437 | 10997 ft | 243 kts | 191° |
| 2026-05-07 15:34 | 39.23055 | -82.63603 | 10997 ft | 243 kts | 191° |
| 2026-05-07 15:35 | 39.21372 | -82.63773 | 10998 ft | 243 kts | 191° |
| 2026-05-07 15:35 | 39.19689 | -82.63944 | 10994 ft | 243 kts | 191° |
| 2026-05-07 15:35 | 39.18008 | -82.64115 | 10996 ft | 242 kts | 191° |
| 2026-05-07 15:35 | 39.16326 | -82.64285 | 10993 ft | 243 kts | 191° |
| 2026-05-07 15:36 | 39.14641 | -82.64455 | 10994 ft | 243 kts | 191° |
| 2026-05-07 15:36 | 39.12959 | -82.64626 | 10992 ft | 243 kts | 191° |
| 2026-05-07 15:36 | 39.11276 | -82.64796 | 10991 ft | 243 kts | 191° |
| 2026-05-07 15:36 | 39.09594 | -82.64964 | 10992 ft | 242 kts | 191° |
| 2026-05-07 15:37 | 39.07913 | -82.65135 | 10993 ft | 243 kts | 191° |
| 2026-05-07 15:37 | 39.06228 | -82.65306 | 10992 ft | 243 kts | 191° |
| 2026-05-07 15:37 | 39.04539 | -82.65476 | 10989 ft | 243 kts | 191° |
| 2026-05-07 15:37 | 39.02854 | -82.65646 | 10992 ft | 243 kts | 191° |
| 2026-05-07 15:38 | 39.01175 | -82.65814 | 10990 ft | 242 kts | 191° |
| 2026-05-07 15:38 | 38.99493 | -82.65984 | 10990 ft | 242 kts | 191° |
| 2026-05-07 15:38 | 38.97812 | -82.66154 | 10989 ft | 242 kts | 191° |
| 2026-05-07 15:38 | 38.96131 | -82.66323 | 10992 ft | 242 kts | 191° |
| 2026-05-07 15:39 | 38.94454 | -82.66490 | 10991 ft | 241 kts | 191° |
| 2026-05-07 15:39 | 38.92779 | -82.66659 | 10993 ft | 242 kts | 192° |
| 2026-05-07 15:39 | 38.91097 | -82.66829 | 10991 ft | 242 kts | 191° |
| 2026-05-07 15:39 | 38.89417 | -82.66997 | 10994 ft | 242 kts | 191° |
| 2026-05-07 15:40 | 38.87737 | -82.67166 | 10992 ft | 242 kts | 192° |
| 2026-05-07 15:40 | 38.86054 | -82.67335 | 11002 ft | 243 kts | 192° |
| 2026-05-07 15:40 | 38.84370 | -82.67505 | 11003 ft | 243 kts | 191° |
| 2026-05-07 15:40 | 38.82682 | -82.67636 | 11000 ft | 245 kts | 186° |
| 2026-05-07 15:41 | 38.80970 | -82.67324 | 11001 ft | 253 kts | 172° |
| 2026-05-07 15:41 | 38.79290 | -82.66570 | 10909 ft | 259 kts | 166° |
| 2026-05-07 15:41 | 38.77580 | -82.65768 | 10631 ft | 265 kts | 167° |
| 2026-05-07 15:41 | 38.75835 | -82.64958 | 10292 ft | 268 kts | 166° |
| 2026-05-07 15:42 | 38.74076 | -82.64137 | 9937 ft | 269 kts | 166° |
| 2026-05-07 15:42 | 38.72321 | -82.63317 | 9568 ft | 268 kts | 166° |
| 2026-05-07 15:42 | 38.70575 | -82.62504 | 9200 ft | 266 kts | 166° |
| 2026-05-07 15:42 | 38.68845 | -82.61695 | 8852 ft | 264 kts | 166° |
| 2026-05-07 15:43 | 38.67123 | -82.60895 | 8502 ft | 263 kts | 165° |
| 2026-05-07 15:43 | 38.65409 | -82.60098 | 8168 ft | 261 kts | 165° |
| 2026-05-07 15:43 | 38.63706 | -82.59306 | 7813 ft | 259 kts | 165° |
| 2026-05-07 15:43 | 38.62013 | -82.58520 | 7476 ft | 259 kts | 165° |
| 2026-05-07 15:44 | 38.60329 | -82.57738 | 7133 ft | 257 kts | 164° |
| 2026-05-07 15:44 | 38.58673 | -82.56969 | 6802 ft | 256 kts | 164° |
| 2026-05-07 15:44 | 38.57025 | -82.56200 | 6465 ft | 248 kts | 163° |
| 2026-05-07 15:44 | 38.55413 | -82.55454 | 6116 ft | 246 kts | 163° |
| 2026-05-07 15:45 | 38.53806 | -82.54712 | 5794 ft | 245 kts | 163° |
| 2026-05-07 15:45 | 38.52207 | -82.53971 | 5453 ft | 244 kts | 163° |
| 2026-05-07 15:45 | 38.50612 | -82.53231 | 5130 ft | 243 kts | 162° |
| 2026-05-07 15:45 | 38.49029 | -82.52498 | 4807 ft | 241 kts | 162° |
| 2026-05-07 15:46 | 38.45874 | -82.51040 | 4162 ft | 240 kts | 161° |
| 2026-05-07 15:46 | 38.44309 | -82.50312 | 3858 ft | 239 kts | 161° |
| 2026-05-07 15:46 | 38.43250 | -82.49825 | 3631 ft | 239 kts | 161° |
| 2026-05-07 15:47 | 38.41184 | -82.48875 | 3210 ft | 238 kts | 162° |
| 2026-05-07 15:47 | 38.40096 | -82.48572 | 2999 ft | 237 kts | 178° |
| 2026-05-07 15:47 | 38.38576 | -82.48915 | 2680 ft | 200 kts | 202° |
| 2026-05-07 15:47 | 38.37476 | -82.49807 | 2474 ft | 186 kts | 227° |
| 2026-05-07 15:48 | 38.36779 | -82.51052 | 2153 ft | 164 kts | 244° |
| 2026-05-07 15:48 | 38.36309 | -82.52237 | 1726 ft | 130 kts | 251° |
| 2026-05-07 15:48 | 38.36149 | -82.53240 | 1349 ft | 102 kts | 271° |
| 2026-05-07 15:48 | 38.36224 | -82.54044 | 1091 ft | 89 kts | 288° |
| 2026-05-07 15:49 | 38.36444 | -82.54784 | 934 ft | 90 kts | 297° |
| 2026-05-07 15:49 | 38.36685 | -82.55518 | 838 ft | 86 kts | 295° |
| 2026-05-07 15:49 | 38.36880 | -82.56109 | 832 ft | 54 kts | 293° |
| 2026-05-07 15:49 | 38.36972 | -82.56383 | 833 ft | 24 kts | 292° |
| 2026-05-07 15:50 | 38.37067 | -82.56388 | 831 ft | 14 kts | 109° |
| 2026-05-07 15:50 | 38.37012 | -82.56227 | 833 ft | 20 kts | 112° |
| 2026-05-07 15:50 | 38.36974 | -82.56113 | 833 ft | 19 kts | 111° |
| 2026-05-07 15:50 | 38.36922 | -82.55948 | 833 ft | 21 kts | 114° |
| 2026-05-07 15:51 | 38.36890 | -82.55789 | 833 ft | 11 kts | 77° |
| 2026-05-07 15:51 | 38.36904 | -82.55697 | 833 ft | 3 kts | 110° |
| 2026-05-07 15:51 | 38.36903 | -82.55695 | 833 ft | 0 kts | 111° |
| 2026-05-07 15:56 | 38.36898 | -82.55681 | 833 ft | 4 kts | 130° |
| 2026-05-07 15:56 | 38.36825 | -82.55628 | 833 ft | 18 kts | 137° |
| 2026-05-07 15:56 | 38.36764 | -82.55447 | 834 ft | 19 kts | 104° |
| 2026-05-07 15:57 | 38.36716 | -82.55252 | 834 ft | 25 kts | 112° |
| 2026-05-07 15:57 | 38.36662 | -82.55080 | 833 ft | 25 kts | 110° |
| 2026-05-07 15:57 | 38.36604 | -82.54909 | 834 ft | 20 kts | 116° |
| 2026-05-07 15:57 | 38.36496 | -82.54934 | 829 ft | 6 kts | 305° |
| 2026-05-07 15:58 | 38.36517 | -82.54995 | 832 ft | 22 kts | 294° |
| 2026-05-07 15:58 | 38.36657 | -82.55433 | 834 ft | 83 kts | 293° |
| 2026-05-07 15:58 | 38.36926 | -82.56276 | 907 ft | 118 kts | 291° |
| 2026-05-07 15:58 | 38.37265 | -82.57392 | 1244 ft | 146 kts | 294° |
| 2026-05-07 15:59 | 38.37647 | -82.58628 | 1986 ft | 147 kts | 289° |
| 2026-05-07 15:59 | 38.37869 | -82.59858 | 2824 ft | 145 kts | 267° |
| 2026-05-07 15:59 | 38.37325 | -82.60949 | 3778 ft | 155 kts | 218° |
| 2026-05-07 15:59 | 38.36291 | -82.61387 | 4541 ft | 163 kts | 182° |
| 2026-05-07 16:00 | 38.35227 | -82.60892 | 5268 ft | 169 kts | 141° |
| 2026-05-07 16:00 | 38.34588 | -82.59625 | 5936 ft | 174 kts | 112° |
| 2026-05-07 16:00 | 38.34124 | -82.58187 | 6594 ft | 179 kts | 115° |
| 2026-05-07 16:00 | 38.33584 | -82.56697 | 6952 ft | 200 kts | 117° |
| 2026-05-07 16:01 | 38.32940 | -82.54981 | 7034 ft | 228 kts | 120° |
| 2026-05-07 16:01 | 38.32230 | -82.53083 | 7010 ft | 244 kts | 117° |
| 2026-05-07 16:01 | 38.31496 | -82.51098 | 7020 ft | 250 kts | 117° |
| 2026-05-07 16:01 | 38.30750 | -82.49081 | 7008 ft | 253 kts | 117° |
| 2026-05-07 16:02 | 38.29985 | -82.47030 | 7004 ft | 254 kts | 117° |
| 2026-05-07 16:02 | 38.29239 | -82.45027 | 7005 ft | 254 kts | 117° |
| 2026-05-07 16:02 | 38.28484 | -82.43002 | 7007 ft | 253 kts | 117° |
| 2026-05-07 16:02 | 38.27730 | -82.40981 | 7002 ft | 253 kts | 117° |
| 2026-05-07 16:03 | 38.26977 | -82.38962 | 6997 ft | 252 kts | 117° |
| 2026-05-07 16:03 | 38.26222 | -82.36942 | 6999 ft | 253 kts | 117° |
| 2026-05-07 16:03 | 38.25468 | -82.34924 | 6997 ft | 253 kts | 117° |
| 2026-05-07 16:03 | 38.24713 | -82.32906 | 6996 ft | 253 kts | 117° |
| 2026-05-07 16:04 | 38.23956 | -82.30885 | 6997 ft | 253 kts | 117° |
| 2026-05-07 16:04 | 38.23200 | -82.28865 | 6992 ft | 253 kts | 117° |
| 2026-05-07 16:04 | 38.22443 | -82.26842 | 6988 ft | 253 kts | 117° |
| 2026-05-07 16:04 | 38.21686 | -82.24827 | 6986 ft | 253 kts | 117° |
| 2026-05-07 16:05 | 38.20928 | -82.22809 | 6987 ft | 253 kts | 117° |
| 2026-05-07 16:05 | 38.20172 | -82.20793 | 6984 ft | 253 kts | 118° |
| 2026-05-07 16:05 | 38.19413 | -82.18774 | 6984 ft | 253 kts | 118° |
| 2026-05-07 16:05 | 38.18655 | -82.16758 | 6980 ft | 253 kts | 118° |
| 2026-05-07 16:06 | 38.17897 | -82.14743 | 6975 ft | 252 kts | 118° |
| 2026-05-07 16:06 | 38.17141 | -82.12735 | 6975 ft | 252 kts | 118° |
| 2026-05-07 16:06 | 38.16384 | -82.10727 | 6977 ft | 252 kts | 118° |
| 2026-05-07 16:06 | 38.15626 | -82.08717 | 6978 ft | 252 kts | 118° |
| 2026-05-07 16:07 | 38.14868 | -82.06707 | 6977 ft | 252 kts | 118° |
| 2026-05-07 16:07 | 38.14109 | -82.04697 | 6976 ft | 253 kts | 118° |
| 2026-05-07 16:07 | 38.13349 | -82.02683 | 6975 ft | 253 kts | 118° |
| 2026-05-07 16:07 | 38.12587 | -82.00666 | 6975 ft | 253 kts | 118° |
| 2026-05-07 16:08 | 38.11822 | -81.98647 | 6975 ft | 254 kts | 118° |
| 2026-05-07 16:08 | 38.11054 | -81.96620 | 6977 ft | 255 kts | 118° |
| 2026-05-07 16:08 | 38.10287 | -81.94590 | 6977 ft | 255 kts | 118° |
| 2026-05-07 16:08 | 38.09519 | -81.92565 | 6975 ft | 254 kts | 118° |
| 2026-05-07 16:09 | 38.08754 | -81.90547 | 6972 ft | 253 kts | 118° |
| 2026-05-07 16:09 | 38.07990 | -81.88537 | 6971 ft | 253 kts | 118° |
| 2026-05-07 16:09 | 38.07229 | -81.86528 | 6973 ft | 252 kts | 118° |
| 2026-05-07 16:09 | 38.06466 | -81.84524 | 6971 ft | 252 kts | 118° |
| 2026-05-07 16:10 | 38.05704 | -81.82517 | 6970 ft | 252 kts | 118° |
| 2026-05-07 16:10 | 38.04951 | -81.80542 | 6969 ft | 252 kts | 118° |
| 2026-05-07 16:10 | 38.04189 | -81.78538 | 6972 ft | 253 kts | 118° |
| 2026-05-07 16:10 | 38.03424 | -81.76531 | 6970 ft | 253 kts | 118° |
| 2026-05-07 16:11 | 38.02657 | -81.74520 | 6973 ft | 253 kts | 118° |
| 2026-05-07 16:11 | 38.01872 | -81.72526 | 6968 ft | 251 kts | 124° |
| 2026-05-07 16:11 | 38.00670 | -81.71022 | 6968 ft | 227 kts | 152° |
| 2026-05-07 16:11 | 37.99298 | -81.69998 | 6974 ft | 235 kts | 153° |